createdAt,value
2022-12-01T00:01:10.736Z,9.60
2022-12-01T00:03:53.864Z,9.20
2022-12-01T00:06:39.074Z,9.60
2022-12-01T00:12:36.162Z,9.40
2022-12-01T00:15:13.377Z,9.20
2022-12-01T00:17:50.689Z,9.40
2022-12-01T00:20:27.320Z,9.50
2022-12-01T00:23:05.730Z,9.40
2022-12-01T00:25:42.824Z,9.40
2022-12-01T00:28:17.800Z,9.40
2022-12-01T00:31:12.528Z,9.40
2022-12-01T00:33:51.673Z,9.40
2022-12-01T00:36:28.038Z,9.40
2022-12-01T00:39:05.574Z,9.30
2022-12-01T00:41:41.081Z,9.40
2022-12-01T00:44:15.503Z,9.20
2022-12-01T00:46:53.684Z,9.40
2022-12-01T00:49:35.337Z,9.40
2022-12-01T00:52:12.621Z,9.40
2022-12-01T00:55:15.351Z,9.50
2022-12-01T00:58:10.363Z,9.40
2022-12-01T01:00:47.819Z,9.40
2022-12-01T01:03:35.003Z,9.50
2022-12-01T01:06:15.170Z,9.40
2022-12-01T01:09:02.273Z,9.30
2022-12-01T01:11:43.559Z,9.30
2022-12-01T01:14:19.589Z,9.40
2022-12-01T01:17:21.728Z,9.40
2022-12-01T01:19:59.830Z,9.40
2022-12-01T01:22:37.277Z,9.40
2022-12-01T01:25:12.395Z,9.40
2022-12-01T01:27:56.764Z,9.40
2022-12-01T01:30:38.012Z,9.40
2022-12-01T01:33:13.771Z,9.40
2022-12-01T01:36:06.996Z,9.40
2022-12-01T01:38:53.745Z,9.40
2022-12-01T01:41:31.823Z,9.40
2022-12-01T01:44:24.785Z,9.40
2022-12-01T01:49:52.130Z,9.40
2022-12-01T01:52:38.440Z,9.50
2022-12-01T01:55:17.557Z,9.40
2022-12-01T01:58:18.396Z,9.40
2022-12-01T02:00:55.669Z,9.30
2022-12-01T02:03:45.416Z,9.50
2022-12-01T02:06:53.887Z,9.40
2022-12-01T02:09:32.851Z,9.40
2022-12-01T02:12:30.617Z,9.30
2022-12-01T02:15:45.936Z,9.40
2022-12-01T02:18:33.706Z,9.20
2022-12-01T02:22:08.540Z,9.40
2022-12-01T02:25:37.034Z,9.30
2022-12-01T02:28:56.020Z,9.30
2022-12-01T02:32:06.977Z,9.50
2022-12-01T02:34:59.405Z,9.30
2022-12-01T02:37:40.673Z,9.30
2022-12-01T02:40:33.216Z,9.30
2022-12-01T02:43:16.828Z,9.30
2022-12-01T02:45:57.911Z,9.30
2022-12-01T02:48:45.635Z,9.30
2022-12-01T02:51:32.141Z,9.30
2022-12-01T02:54:10.700Z,9.10
2022-12-01T02:56:47.367Z,9.30
2022-12-01T02:59:22.178Z,9.30
2022-12-01T03:02:12.316Z,9.30
2022-12-01T03:05:15.247Z,9.30
2022-12-01T03:08:07.441Z,9.30
2022-12-01T03:10:55.441Z,9.30
2022-12-01T03:13:43.074Z,9.10
2022-12-01T03:16:29.184Z,9.30
2022-12-01T03:19:16.671Z,9.30
2022-12-01T03:22:03.930Z,9.30
2022-12-01T03:24:45.070Z,9.30
2022-12-01T03:27:36.282Z,9.30
2022-12-01T03:33:28.890Z,9.30
2022-12-01T03:36:20.887Z,9.20
2022-12-01T03:39:06.016Z,9.20
2022-12-01T03:42:11.467Z,9.30
2022-12-01T03:45:23.089Z,9.20
2022-12-01T03:48:03.496Z,9.30
2022-12-01T03:51:15.210Z,9.20
2022-12-01T03:54:19.840Z,9.20
2022-12-01T03:57:18.772Z,9.20
2022-12-01T04:00:00.377Z,9.40
2022-12-01T04:02:38.637Z,9.40
2022-12-01T04:05:13.635Z,9.20
2022-12-01T04:07:47.850Z,9.20
2022-12-01T04:10:25.631Z,9.20
2022-12-01T04:13:00.086Z,9.30
2022-12-01T04:16:00.083Z,9.20
2022-12-01T04:18:34.132Z,9.20
2022-12-01T04:21:20.276Z,9.20
2022-12-01T04:24:17.600Z,9.20
2022-12-01T04:27:28.005Z,9.20
2022-12-01T04:30:25.758Z,9.20
2022-12-01T04:32:59.677Z,9.20
2022-12-01T04:35:39.947Z,9.20
2022-12-01T04:38:15.225Z,9.20
2022-12-01T04:40:49.526Z,9.20
2022-12-01T04:43:30.475Z,9.20
2022-12-01T04:46:06.948Z,9.00
2022-12-01T04:48:44.932Z,9.30
2022-12-01T04:51:20.536Z,9.30
2022-12-01T04:54:23.212Z,9.20
2022-12-01T04:57:00.141Z,9.20
2022-12-01T04:59:36.014Z,9.30
2022-12-01T05:02:13.559Z,9.40
2022-12-01T05:04:48.774Z,9.20
2022-12-01T05:07:28.325Z,9.20
2022-12-01T05:10:06.780Z,9.20
2022-12-01T05:12:41.635Z,9.30
2022-12-01T05:15:50.332Z,9.20
2022-12-01T05:18:26.824Z,9.20
2022-12-01T05:21:14.571Z,9.20
2022-12-01T05:23:48.921Z,9.20
2022-12-01T05:26:36.708Z,9.20
2022-12-01T05:29:17.400Z,9.40
2022-12-01T05:32:18.907Z,9.20
2022-12-01T05:34:55.340Z,9.20
2022-12-01T05:37:35.856Z,9.20
2022-12-01T05:40:12.075Z,9.30
2022-12-01T05:42:46.920Z,9.20
2022-12-01T05:45:21.431Z,9.10
2022-12-01T05:48:29.162Z,9.10
2022-12-01T05:51:21.513Z,9.10
2022-12-01T05:57:03.824Z,9.10
2022-12-01T05:59:40.258Z,9.30
2022-12-01T06:02:42.151Z,9.10
2022-12-01T06:05:31.608Z,9.10
2022-12-01T06:08:12.230Z,9.10
2022-12-01T06:10:51.303Z,9.30
2022-12-01T06:13:27.880Z,9.10
2022-12-01T06:16:13.227Z,9.10
2022-12-01T06:18:48.081Z,9.10
2022-12-01T06:21:45.220Z,9.10
2022-12-01T06:24:23.777Z,9.20
2022-12-01T06:27:18.233Z,9.30
2022-12-01T06:29:58.990Z,9.10
2022-12-01T06:32:38.664Z,9.10
2022-12-01T06:35:20.497Z,9.10
2022-12-01T06:38:03.018Z,9.10
2022-12-01T06:40:46.761Z,9.10
2022-12-01T06:43:26.640Z,9.10
2022-12-01T06:46:03.883Z,8.90
2022-12-01T06:48:43.448Z,9.10
2022-12-01T06:51:28.255Z,9.10
2022-12-01T06:54:10.560Z,9.10
2022-12-01T06:56:47.051Z,9.20
2022-12-01T06:59:47.733Z,8.90
2022-12-01T07:02:25.011Z,9.10
2022-12-01T07:04:59.457Z,9.10
2022-12-01T07:07:40.143Z,9.10
2022-12-01T07:10:20.176Z,9.20
2022-12-01T07:13:00.951Z,9.10
2022-12-01T07:15:41.615Z,8.90
2022-12-01T07:18:38.907Z,9.00
2022-12-01T07:21:20.620Z,9.00
2022-12-01T07:23:56.152Z,9.00
2022-12-01T07:26:35.012Z,9.00
2022-12-01T07:29:12.397Z,9.00
2022-12-01T07:31:54.364Z,9.00
2022-12-01T07:34:41.605Z,9.10
2022-12-01T07:37:31.298Z,9.00
2022-12-01T07:40:09.115Z,9.00
2022-12-01T07:42:50.029Z,9.00
2022-12-01T07:45:33.823Z,9.00
2022-12-01T07:48:08.576Z,9.00
2022-12-01T07:51:10.558Z,8.90
2022-12-01T07:53:45.581Z,8.90
2022-12-01T07:56:45.753Z,8.90
2022-12-01T07:59:25.502Z,8.90
2022-12-01T08:02:04.305Z,8.90
2022-12-01T08:04:40.915Z,8.90
2022-12-01T08:07:14.849Z,8.90
2022-12-01T08:09:54.289Z,8.90
2022-12-01T08:12:33.962Z,8.90
2022-12-01T08:15:09.447Z,8.90
2022-12-01T08:17:51.510Z,8.90
2022-12-01T08:20:25.928Z,9.00
2022-12-01T08:23:25.788Z,9.00
2022-12-01T08:26:10.843Z,8.90
2022-12-01T08:29:20.359Z,9.10
2022-12-01T08:32:00.586Z,9.00
2022-12-01T08:34:53.114Z,9.00
2022-12-01T08:37:29.871Z,9.00
2022-12-01T08:40:04.553Z,9.00
2022-12-01T08:42:41.845Z,9.00
2022-12-01T08:45:25.601Z,9.00
2022-12-01T08:48:03.518Z,9.00
2022-12-01T08:50:57.548Z,9.00
2022-12-01T08:53:32.693Z,8.70
2022-12-01T08:56:13.502Z,9.10
2022-12-01T08:58:47.596Z,9.00
2022-12-01T09:01:33.685Z,9.10
2022-12-01T09:04:09.215Z,8.90
2022-12-01T09:06:55.293Z,8.90
2022-12-01T09:09:43.051Z,8.90
2022-12-01T09:12:29.327Z,9.00
2022-12-01T09:15:17.196Z,9.00
2022-12-01T09:18:18.618Z,9.00
2022-12-01T09:20:57.752Z,9.00
2022-12-01T09:23:43.787Z,8.80
2022-12-01T09:26:20.037Z,9.00
2022-12-01T09:29:05.598Z,9.00
2022-12-01T09:32:07.854Z,9.10
2022-12-01T09:35:13.117Z,9.10
2022-12-01T09:38:05.433Z,9.00
2022-12-01T09:40:47.560Z,9.00
2022-12-01T09:43:58.953Z,9.00
2022-12-01T09:46:42.053Z,9.00
2022-12-01T09:49:43.636Z,9.00
2022-12-01T09:52:31.331Z,8.90
2022-12-01T09:55:17.753Z,8.90
2022-12-01T09:58:03.756Z,8.90
2022-12-01T10:00:46.259Z,8.80
2022-12-01T10:03:52.387Z,8.90
2022-12-01T10:07:03.505Z,8.90
2022-12-01T10:13:33.843Z,8.90
2022-12-01T10:16:19.287Z,8.90
2022-12-01T10:19:07.757Z,8.90
2022-12-01T10:22:27.382Z,8.90
2022-12-01T10:25:41.493Z,8.90
2022-12-01T10:29:09.145Z,8.80
2022-12-01T10:32:00.358Z,9.10
2022-12-01T10:35:05.423Z,9.00
2022-12-01T10:37:59.598Z,9.00
2022-12-01T10:40:43.883Z,8.80
2022-12-01T10:43:58.745Z,9.00
2022-12-01T10:46:58.762Z,9.10
2022-12-01T10:49:45.147Z,9.20
2022-12-01T10:52:41.288Z,9.10
2022-12-01T10:59:04.063Z,9.10
2022-12-01T11:02:00.402Z,9.20
2022-12-01T11:05:02.561Z,9.20
2022-12-01T11:07:47.792Z,9.20
2022-12-01T11:10:34.092Z,9.00
2022-12-01T11:13:28.997Z,9.00
2022-12-01T11:16:40.810Z,9.20
2022-12-01T11:19:35.716Z,9.40
2022-12-01T11:22:35.327Z,9.30
2022-12-01T11:25:23.368Z,9.40
2022-12-01T11:28:03.737Z,9.30
2022-12-01T11:30:41.390Z,9.40
2022-12-01T11:33:29.592Z,9.40
2022-12-01T11:36:16.350Z,9.40
2022-12-01T11:38:58.403Z,9.40
2022-12-01T11:41:40.050Z,9.40
2022-12-01T11:44:50.303Z,9.40
2022-12-01T11:47:31.565Z,9.40
2022-12-01T11:50:31.275Z,9.40
2022-12-01T11:53:31.310Z,9.40
2022-12-01T11:56:35.434Z,9.40
2022-12-01T11:59:19.276Z,9.40
2022-12-01T12:02:23.818Z,9.40
2022-12-01T12:05:41.773Z,9.40
2022-12-01T12:08:37.495Z,9.60
2022-12-01T12:11:24.999Z,9.50
2022-12-01T12:14:43.854Z,9.50
2022-12-01T12:18:01.051Z,9.50
2022-12-01T12:21:11.968Z,9.50
2022-12-01T12:24:37.246Z,9.50
2022-12-01T12:27:37.996Z,9.50
2022-12-01T12:34:36.728Z,9.50
2022-12-01T12:37:42.242Z,9.50
2022-12-01T12:41:07.912Z,9.50
2022-12-01T12:44:19.462Z,9.30
2022-12-01T12:47:41.706Z,9.50
2022-12-01T12:50:38.590Z,9.50
2022-12-01T12:53:34.452Z,9.50
2022-12-01T12:56:15.849Z,9.60
2022-12-01T12:58:59.865Z,9.60
2022-12-01T13:01:52.738Z,9.60
2022-12-01T13:04:36.368Z,9.50
2022-12-01T13:07:52.980Z,9.60
2022-12-01T13:16:21.332Z,9.50
2022-12-01T13:24:10.311Z,9.50
2022-12-01T13:37:12.638Z,9.30
2022-12-01T13:40:04.577Z,9.40
2022-12-01T13:44:04.911Z,9.40
2022-12-01T13:47:49.860Z,9.20
2022-12-01T13:56:43.504Z,9.40
2022-12-01T14:04:57.974Z,9.40
2022-12-01T14:07:42.798Z,9.40
2022-12-01T14:11:20.768Z,9.40
2022-12-01T14:14:02.883Z,9.60
2022-12-01T14:17:07.690Z,9.40
2022-12-01T14:19:52.018Z,9.40
2022-12-01T14:23:43.646Z,9.40
2022-12-01T14:26:44.742Z,9.40
2022-12-01T14:30:10.477Z,9.40
2022-12-01T14:33:52.436Z,9.40
2022-12-01T14:37:25.978Z,9.40
2022-12-01T15:11:33.953Z,9.30
2022-12-01T15:15:23.633Z,9.20
2022-12-01T15:27:23.638Z,9.10
2022-12-01T15:30:05.289Z,9.10
2022-12-01T15:32:43.233Z,9.00
2022-12-01T15:35:25.928Z,9.20
2022-12-01T15:38:07.724Z,9.00
2022-12-01T15:43:44.878Z,9.00
2022-12-01T15:46:21.319Z,9.20
2022-12-01T15:49:48.667Z,8.90
2022-12-01T15:52:25.626Z,9.00
2022-12-01T15:55:07.424Z,9.00
2022-12-01T15:57:47.957Z,9.00
2022-12-01T16:00:40.124Z,8.90
2022-12-01T16:07:00.630Z,8.90
2022-12-01T16:10:13.864Z,9.10
2022-12-01T16:17:05.909Z,8.90
2022-12-01T16:20:14.030Z,8.90
2022-12-01T16:23:06.153Z,8.90
2022-12-01T16:32:38.709Z,8.80
2022-12-01T16:35:29.705Z,8.90
2022-12-01T16:38:42.375Z,8.80
2022-12-01T16:41:45.403Z,8.90
2022-12-01T16:44:28.885Z,8.80
2022-12-01T16:47:43.051Z,8.70
2022-12-01T16:50:56.404Z,8.90
2022-12-01T16:53:50.792Z,8.70
2022-12-01T16:57:50.019Z,8.90
2022-12-01T17:01:08.101Z,8.70
2022-12-01T17:03:55.567Z,8.70
2022-12-01T17:10:24.691Z,8.80
2022-12-01T17:13:21.574Z,8.70
2022-12-01T17:15:58.913Z,8.70
2022-12-01T17:19:14.442Z,8.70
2022-12-01T17:22:30.987Z,8.80
2022-12-01T17:28:48.239Z,8.60
2022-12-01T17:31:27.584Z,8.70
2022-12-01T17:35:09.273Z,8.80
2022-12-01T17:41:26.266Z,8.60
2022-12-01T17:44:20.556Z,8.40
2022-12-01T17:47:12.483Z,8.40
2022-12-01T17:53:19.010Z,8.50
2022-12-01T17:55:59.788Z,8.30
2022-12-01T17:58:41.020Z,8.50
2022-12-01T18:01:30.429Z,8.40
2022-12-01T18:04:09.519Z,8.40
2022-12-01T18:07:20.310Z,8.40
2022-12-01T18:15:06.206Z,8.40
2022-12-01T18:43:27.480Z,8.40
2022-12-01T18:48:16.880Z,8.20
2022-12-01T18:54:14.985Z,8.20
2022-12-01T19:05:10.271Z,8.20
2022-12-01T19:11:52.878Z,8.20
2022-12-01T19:14:50.298Z,8.20
2022-12-01T19:18:17.957Z,8.10
2022-12-01T19:20:58.505Z,8.30
2022-12-01T19:24:10.667Z,8.10
2022-12-01T19:26:58.152Z,8.10
2022-12-01T19:30:13.104Z,8.10
2022-12-01T19:33:16.096Z,8.10
2022-12-01T19:36:23.203Z,8.10
2022-12-01T19:42:22.527Z,8.00
2022-12-01T19:45:21.025Z,8.00
2022-12-01T19:48:01.866Z,8.00
2022-12-01T19:52:31.422Z,8.00
2022-12-01T19:55:11.233Z,7.90
2022-12-01T19:57:54.753Z,7.90
2022-12-01T20:00:30.856Z,7.90
2022-12-01T20:03:47.148Z,7.90
2022-12-01T20:06:49.389Z,7.90
2022-12-01T20:10:08.480Z,7.90
2022-12-01T20:12:50.912Z,8.00
2022-12-01T20:15:46.505Z,7.90
2022-12-01T20:18:37.934Z,7.90
2022-12-01T20:21:48.993Z,7.90
2022-12-01T20:25:05.068Z,7.80
2022-12-01T20:27:40.188Z,7.70
2022-12-01T20:30:25.831Z,7.80
2022-12-01T20:33:00.716Z,7.80
2022-12-01T20:35:38.642Z,7.80
2022-12-01T20:38:27.443Z,7.80
2022-12-01T20:41:30.567Z,7.80
2022-12-01T20:44:24.148Z,7.80
2022-12-01T20:47:33.669Z,7.70
2022-12-01T20:50:16.515Z,7.70
2022-12-01T20:53:00.167Z,7.70
2022-12-01T20:56:01.448Z,7.70
2022-12-01T20:58:45.430Z,7.70
2022-12-01T21:01:20.731Z,7.70
2022-12-01T21:04:18.839Z,7.70
2022-12-01T21:07:12.542Z,7.70
2022-12-01T21:13:08.228Z,7.70
2022-12-01T21:15:53.116Z,7.50
2022-12-01T21:18:47.336Z,7.70
2022-12-01T21:21:35.113Z,7.70
2022-12-01T21:24:26.065Z,7.50
2022-12-01T21:27:17.761Z,7.70
2022-12-01T21:29:57.003Z,7.70
2022-12-01T21:32:43.762Z,7.70
2022-12-01T21:35:28.260Z,7.70
2022-12-01T21:38:15.433Z,7.80
2022-12-01T21:41:22.266Z,7.90
2022-12-01T21:44:16.149Z,7.90
2022-12-01T21:47:00.126Z,7.80
2022-12-01T21:49:48.879Z,7.60
2022-12-01T21:52:40.756Z,7.80
2022-12-01T21:55:44.260Z,7.80
2022-12-01T21:58:46.893Z,7.90
2022-12-01T22:04:36.480Z,7.70
2022-12-01T22:07:42.414Z,7.70
2022-12-01T22:11:36.848Z,7.70
2022-12-01T22:14:26.831Z,7.70
2022-12-01T22:17:19.112Z,7.70
2022-12-01T22:20:33.005Z,7.70
2022-12-01T22:23:35.378Z,7.60
2022-12-01T22:26:42.963Z,7.60
2022-12-01T22:29:46.368Z,7.60
2022-12-01T22:32:56.722Z,7.60
2022-12-01T22:35:48.868Z,7.60
2022-12-01T22:38:37.624Z,7.60
2022-12-01T22:42:06.002Z,7.70
2022-12-01T22:44:51.392Z,7.60
2022-12-01T22:47:35.928Z,7.60
2022-12-01T22:50:39.524Z,7.50
2022-12-01T22:53:18.252Z,7.50
2022-12-01T22:56:00.821Z,7.60
2022-12-01T22:58:43.998Z,7.70
2022-12-01T23:04:48.492Z,7.30
2022-12-01T23:07:38.661Z,7.50
2022-12-01T23:10:23.488Z,7.50
2022-12-01T23:13:16.142Z,7.20
2022-12-01T23:16:26.746Z,7.40
2022-12-01T23:19:03.474Z,7.40
2022-12-01T23:21:43.712Z,7.30
2022-12-01T23:24:35.665Z,7.40
2022-12-01T23:27:17.343Z,7.30
2022-12-01T23:29:58.652Z,7.10
2022-12-01T23:32:34.404Z,7.30
2022-12-01T23:35:44.919Z,7.30
2022-12-01T23:38:27.993Z,7.20
2022-12-01T23:41:34.553Z,7.40
2022-12-01T23:44:39.698Z,7.20
2022-12-01T23:47:28.465Z,7.20
2022-12-01T23:51:06.760Z,7.30
2022-12-01T23:53:49.257Z,7.20
2022-12-01T23:56:36.380Z,7.20
2022-12-01T23:59:45.188Z,7.20
